Pagina principale
METAR-TAF:

METAR-TAF

Aeroporti :

Base di Solenzara

Solenzara, Francia

latitudine: 41-55N, longitudine: 009-24E, altezza: 8 m

Osservazione

Il bollettino è stato emesso 11 minuti fa, alle 22:30 UTC
Vento 6 kt da ovest, variando fra sud-ovest e ovest/nord-ovest
Temperature 8°C
Umidità 76%
Pressione 1024 hPa
Visibilità 10 km o più
Poco nuvoloso ad un'altezza di 2900 ft

METAR: LFKS 182230Z AUTO 26006KT 230V300 9999 FEW029 08/04 Q1024

Ora: 23:41 (22:41 UTC)

Previsione

Il bollettino è stato emesso 8 ore e 41 minuti fa, alle 14:00 UTC
Previsione valida dal 18 alle 15 UTC al 19 alle 15 UTC
Vento 5 kt da sud/sud-est
Visibilità 10 km o più
nessuna nube inferiore a 1500 m e nessun cumulonembo

TAF: LFKS 181400Z 1815/1915 16005KT CAVOK

Osservazioni e previsioni meteorologiche di più di 4000 aeroporti (messaggi METAR e TAF).

Le stazioni disponibili sono rappresentate dai dischi gialli e rossi sulla carta.

Puntare il mouse per vedere il nome della stazione.

Clicca sopra per visualizzare le osservazioni e previsioni meteorologiche.

Per cambiare la mappa : fare clic sui pulsanti verdi con una croce nera per ingrandire, il pulsante verde con un trattino per diminuire, o sulla freccia verde per le mappe adiacenti.


METAR-TAF: